createdAt,value
2022-11-05T00:01:47.296Z,44.10
2022-11-05T00:04:33.115Z,41.53
2022-11-05T00:10:14.653Z,41.28
2022-11-05T00:12:59.889Z,38.50
2022-11-05T00:15:45.066Z,36.30
2022-11-05T00:18:11.668Z,36.10
2022-11-05T00:20:38.274Z,34.17
2022-11-05T00:23:24.881Z,32.83
2022-11-05T00:25:59.665Z,31.92
2022-11-05T00:28:28.455Z,31.75
2022-11-05T00:31:03.607Z,32.72
2022-11-05T00:33:30.466Z,31.63
2022-11-05T00:35:57.072Z,29.23
2022-11-05T00:38:23.863Z,30.90
2022-11-05T00:40:50.473Z,29.73
2022-11-05T00:43:35.644Z,30.77
2022-11-05T00:46:02.248Z,29.38
2022-11-05T00:48:47.595Z,32.38
2022-11-05T00:51:14.241Z,33.40
2022-11-05T00:53:40.855Z,30.05
2022-11-05T00:56:07.475Z,32.17
2022-11-05T00:58:34.193Z,32.55
2022-11-05T01:01:01.451Z,30.67
2022-11-05T01:03:33.406Z,33.40
2022-11-05T01:06:06.658Z,33.40
2022-11-05T01:08:33.239Z,31.90
2022-11-05T01:10:59.913Z,34.25
2022-11-05T01:13:29.292Z,32.22
2022-11-05T01:15:56.854Z,35.88
2022-11-05T01:18:24.285Z,31.60
2022-11-05T01:20:51.071Z,30.55
2022-11-05T01:23:17.794Z,33.50
2022-11-05T01:25:45.073Z,29.00
2022-11-05T01:28:11.744Z,28.33
2022-11-05T01:30:38.656Z,29.42
2022-11-05T01:33:05.548Z,29.48
2022-11-05T01:35:32.233Z,31.17
2022-11-05T01:37:58.961Z,31.15
2022-11-05T01:40:26.273Z,32.95
2022-11-05T01:42:52.936Z,33.47
2022-11-05T01:45:28.202Z,32.03
2022-11-05T01:48:00.001Z,33.42
2022-11-05T01:50:43.408Z,37.45
2022-11-05T01:53:18.894Z,34.55
2022-11-05T01:56:14.453Z,35.30
2022-11-05T01:58:56.823Z,28.80
2022-11-05T02:01:23.618Z,40.40
2022-11-05T02:03:52.069Z,33.28
2022-11-05T02:06:19.196Z,38.72
2022-11-05T02:09:03.681Z,38.10
2022-11-05T02:11:30.794Z,37.42
2022-11-05T02:13:57.455Z,34.78
2022-11-05T02:16:48.417Z,33.70
2022-11-05T02:19:33.694Z,34.38
2022-11-05T02:22:37.975Z,32.33
2022-11-05T02:25:16.527Z,32.67
2022-11-05T02:28:02.932Z,29.23
2022-11-05T02:30:53.728Z,32.08
2022-11-05T02:33:34.516Z,26.15
2022-11-05T02:36:14.953Z,26.98
2022-11-05T02:39:04.340Z,27.33
2022-11-05T02:41:40.139Z,25.98
2022-11-05T02:44:23.093Z,24.52
2022-11-05T02:47:18.016Z,25.55
2022-11-05T02:49:51.018Z,22.27
2022-11-05T02:52:38.170Z,24.10
2022-11-05T02:55:26.874Z,22.95
2022-11-05T02:57:53.516Z,22.80
2022-11-05T03:00:44.856Z,23.98
2022-11-05T03:03:23.670Z,21.70
2022-11-05T03:05:59.115Z,22.83
2022-11-05T03:08:39.104Z,21.80
2022-11-05T03:11:14.684Z,20.45
2022-11-05T03:13:47.039Z,20.95
2022-11-05T03:16:20.584Z,18.98
2022-11-05T03:19:02.228Z,18.70
2022-11-05T03:21:36.737Z,19.48
2022-11-05T03:24:10.726Z,16.52
2022-11-05T03:26:49.634Z,23.55
2022-11-05T03:29:26.564Z,21.27
2022-11-05T03:31:55.441Z,22.98
2022-11-05T03:34:27.036Z,21.88
2022-11-05T03:36:55.978Z,23.58
2022-11-05T03:39:28.663Z,23.92
2022-11-05T03:41:57.585Z,23.58
2022-11-05T03:44:28.033Z,24.05
2022-11-05T03:47:00.748Z,25.33
2022-11-05T03:49:32.972Z,25.90
2022-11-05T03:52:17.245Z,24.60
2022-11-05T03:54:44.312Z,26.95
2022-11-05T03:57:19.313Z,25.42
2022-11-05T03:59:48.680Z,26.73
2022-11-05T04:02:17.429Z,27.27
2022-11-05T04:04:44.399Z,29.23
2022-11-05T04:07:30.580Z,33.38
2022-11-05T04:10:15.848Z,34.45
2022-11-05T04:13:02.764Z,28.65
2022-11-05T04:15:29.803Z,39.53
2022-11-05T04:17:59.006Z,44.08
2022-11-05T04:20:44.691Z,41.42
2022-11-05T04:23:30.074Z,37.72
2022-11-05T04:25:56.680Z,38.45
2022-11-05T04:28:43.229Z,39.97
2022-11-05T04:31:09.942Z,35.22
2022-11-05T04:33:36.547Z,37.45
2022-11-05T04:36:03.226Z,33.58
2022-11-05T04:38:29.815Z,30.83
2022-11-05T04:41:12.860Z,31.90
2022-11-05T04:43:39.451Z,32.25
2022-11-05T04:46:06.135Z,30.80
2022-11-05T04:48:32.773Z,31.52
2022-11-05T04:50:59.401Z,28.27
2022-11-05T04:53:26.009Z,27.58
2022-11-05T04:55:52.683Z,31.17
2022-11-05T04:58:19.428Z,27.92
2022-11-05T05:00:46.081Z,28.58
2022-11-05T05:03:13.145Z,28.15
2022-11-05T05:05:39.953Z,33.25
2022-11-05T05:08:06.686Z,28.45
2022-11-05T05:10:33.267Z,30.65
2022-11-05T05:12:59.884Z,32.05
2022-11-05T05:15:26.480Z,33.45
2022-11-05T05:17:53.161Z,29.52
2022-11-05T05:20:38.589Z,28.80
2022-11-05T05:23:05.198Z,27.20
2022-11-05T05:25:31.844Z,31.13
2022-11-05T05:27:59.863Z,27.70
2022-11-05T05:30:26.506Z,28.08
2022-11-05T05:32:53.098Z,27.40
2022-11-05T05:35:19.710Z,27.27
2022-11-05T05:37:46.366Z,26.58
2022-11-05T05:40:12.996Z,28.33
2022-11-05T05:42:43.067Z,28.52
2022-11-05T05:45:11.241Z,26.40
2022-11-05T05:47:37.934Z,28.42
2022-11-05T05:50:05.101Z,29.25
2022-11-05T05:52:31.989Z,29.27
2022-11-05T05:54:58.628Z,32.53
2022-11-05T05:57:25.231Z,29.52
2022-11-05T05:59:51.804Z,28.08
2022-11-05T06:02:18.549Z,28.15
2022-11-05T06:04:45.193Z,22.98
2022-11-05T06:07:11.828Z,25.38
2022-11-05T06:09:38.483Z,20.92
2022-11-05T06:12:05.549Z,23.52
2022-11-05T06:14:32.177Z,20.42
2022-11-05T06:16:58.844Z,20.48
2022-11-05T06:19:25.459Z,23.27
2022-11-05T06:21:52.066Z,22.73
2022-11-05T06:24:18.674Z,25.10
2022-11-05T06:26:45.275Z,24.33
2022-11-05T06:29:11.919Z,23.92
2022-11-05T06:31:38.523Z,19.98
2022-11-05T06:34:05.239Z,20.05
2022-11-05T06:36:31.856Z,21.27
2022-11-05T06:38:58.420Z,20.92
2022-11-05T06:41:25.160Z,20.27
2022-11-05T06:43:51.745Z,20.83
2022-11-05T06:46:18.499Z,25.15
2022-11-05T06:48:45.143Z,26.67
2022-11-05T06:51:11.766Z,27.73
2022-11-05T06:53:38.378Z,22.88
2022-11-05T06:56:06.022Z,25.63
2022-11-05T06:58:32.941Z,24.88
2022-11-05T07:01:04.645Z,25.58
2022-11-05T07:03:32.271Z,27.23
2022-11-05T07:06:00.793Z,23.90
2022-11-05T07:08:32.365Z,22.98
2022-11-05T07:10:59.631Z,26.85
2022-11-05T07:13:27.182Z,18.50
2022-11-05T07:15:53.940Z,22.02
2022-11-05T07:18:20.523Z,22.35
2022-11-05T07:20:47.180Z,20.73
2022-11-05T07:23:15.068Z,22.35
2022-11-05T07:25:42.875Z,23.00
2022-11-05T07:28:10.214Z,22.00
2022-11-05T07:30:37.300Z,25.60
2022-11-05T07:33:04.093Z,19.77
2022-11-05T07:35:30.823Z,18.38
2022-11-05T07:37:57.599Z,25.80
2022-11-05T07:40:26.134Z,27.00
2022-11-05T07:42:54.931Z,24.83
2022-11-05T07:45:22.810Z,22.33
2022-11-05T07:47:51.317Z,22.90
2022-11-05T07:50:19.279Z,22.88
2022-11-05T07:52:46.588Z,22.67
2022-11-05T07:55:13.440Z,23.58
2022-11-05T07:57:44.914Z,23.95
2022-11-05T08:00:14.277Z,23.70
2022-11-05T08:02:42.012Z,25.63
2022-11-05T08:05:10.213Z,24.55
2022-11-05T08:07:36.985Z,24.13
2022-11-05T08:10:04.386Z,25.88
2022-11-05T08:12:31.955Z,25.80
2022-11-05T08:14:58.657Z,29.83
2022-11-05T08:17:25.411Z,34.00
2022-11-05T08:19:52.003Z,34.53
2022-11-05T08:22:18.712Z,33.80
2022-11-05T08:24:45.283Z,28.10
2022-11-05T08:27:11.916Z,28.40
2022-11-05T08:29:38.579Z,32.75
2022-11-05T08:32:05.311Z,25.40
2022-11-05T08:34:32.004Z,23.77
2022-11-05T08:37:00.944Z,24.90
2022-11-05T08:39:27.849Z,24.98
2022-11-05T08:41:54.893Z,25.08
2022-11-05T08:44:21.547Z,25.98
2022-11-05T08:46:48.311Z,17.75
2022-11-05T08:49:14.944Z,27.88
2022-11-05T08:51:41.828Z,27.85
2022-11-05T08:54:08.530Z,23.58
2022-11-05T08:56:35.240Z,26.27
2022-11-05T08:59:01.913Z,28.55
2022-11-05T09:01:28.615Z,31.85
2022-11-05T09:03:55.355Z,28.67
2022-11-05T09:06:22.207Z,31.98
2022-11-05T09:08:48.823Z,25.75
2022-11-05T09:11:15.572Z,29.02
2022-11-05T09:13:42.547Z,34.55
2022-11-05T09:16:19.874Z,30.33
2022-11-05T09:18:46.525Z,35.42
2022-11-05T09:21:13.265Z,37.13
2022-11-05T09:23:40.021Z,32.60
2022-11-05T09:26:06.780Z,32.95
2022-11-05T09:28:33.507Z,35.60
2022-11-05T09:31:00.764Z,34.53
2022-11-05T09:33:28.162Z,32.40
2022-11-05T09:35:54.864Z,31.85
2022-11-05T09:38:21.564Z,35.17
2022-11-05T09:41:15.369Z,31.70
2022-11-05T09:43:49.511Z,31.35
2022-11-05T09:46:41.892Z,29.65
2022-11-05T09:49:18.827Z,29.88
2022-11-05T09:51:45.475Z,31.00
2022-11-05T09:54:13.327Z,31.50
2022-11-05T09:56:41.379Z,30.20
2022-11-05T09:59:37.189Z,33.47
2022-11-05T10:02:28.347Z,30.45
2022-11-05T10:04:57.930Z,33.15
2022-11-05T10:07:27.167Z,30.65
2022-11-05T10:10:02.845Z,33.88
2022-11-05T10:12:34.359Z,29.88
2022-11-05T10:15:16.012Z,28.02
2022-11-05T10:17:46.742Z,32.63
2022-11-05T10:20:24.649Z,33.13
2022-11-05T10:22:56.608Z,30.90
2022-11-05T10:25:25.349Z,31.67
2022-11-05T10:27:54.358Z,30.63
2022-11-05T10:30:21.726Z,28.13
2022-11-05T10:32:48.831Z,28.65
2022-11-05T10:35:18.695Z,29.73
2022-11-05T10:37:46.843Z,27.73
2022-11-05T10:40:18.716Z,31.67
2022-11-05T10:43:03.258Z,28.52
2022-11-05T10:45:56.330Z,30.50
2022-11-05T10:48:43.999Z,26.63
2022-11-05T10:51:11.488Z,29.33
2022-11-05T10:53:39.272Z,27.60
2022-11-05T10:56:51.826Z,26.35
2022-11-05T10:59:29.959Z,30.73
2022-11-05T11:02:00.181Z,26.70
2022-11-05T11:04:32.354Z,29.13
2022-11-05T11:07:04.106Z,33.47
2022-11-05T11:09:32.671Z,29.35
2022-11-05T11:12:22.216Z,30.67
2022-11-05T11:15:23.668Z,28.17
2022-11-05T11:17:50.324Z,32.35
2022-11-05T14:08:42.957Z,22.05
2022-11-05T14:11:32.889Z,22.15
2022-11-05T14:14:03.470Z,19.67
2022-11-05T14:16:49.982Z,18.92
2022-11-05T14:19:19.709Z,19.17
2022-11-05T14:21:51.730Z,21.83
2022-11-05T14:24:43.223Z,19.63
2022-11-05T14:27:10.475Z,20.65
2022-11-05T14:29:42.261Z,20.80
2022-11-05T14:32:18.756Z,19.65
2022-11-05T14:34:47.139Z,20.42
2022-11-05T14:37:13.778Z,20.70
2022-11-05T14:39:40.632Z,24.38
2022-11-05T14:42:23.581Z,23.30
2022-11-05T14:45:01.339Z,23.92
2022-11-05T14:47:37.471Z,27.10
2022-11-05T14:50:24.266Z,24.48
2022-11-05T14:53:08.108Z,21.10
2022-11-05T14:55:37.708Z,22.92
2022-11-05T14:58:26.518Z,23.73
2022-11-05T15:00:53.899Z,23.05
2022-11-05T15:03:45.495Z,23.92
2022-11-05T15:06:29.847Z,24.70
2022-11-05T15:09:08.545Z,22.55
2022-11-05T15:11:41.277Z,24.75
2022-11-05T15:14:17.433Z,22.65
2022-11-05T15:16:49.715Z,28.98
2022-11-05T15:19:29.756Z,24.75
2022-11-05T15:21:58.176Z,25.25
2022-11-05T15:24:28.212Z,22.08
2022-11-05T15:27:34.565Z,22.77
2022-11-05T15:30:24.021Z,28.20
2022-11-05T15:32:51.529Z,24.08
2022-11-05T15:35:27.799Z,25.45
2022-11-05T15:38:01.740Z,22.88
2022-11-05T15:40:31.408Z,25.77
2022-11-05T15:43:17.368Z,26.25
2022-11-05T15:45:44.540Z,27.63
2022-11-05T15:48:15.994Z,28.95
2022-11-05T15:50:42.687Z,27.67
2022-11-05T15:53:47.399Z,25.42
2022-11-05T15:56:40.304Z,27.35
2022-11-05T15:59:17.602Z,27.67
2022-11-05T16:01:50.201Z,28.02
2022-11-05T16:04:29.188Z,28.25
2022-11-05T16:06:58.555Z,25.85
2022-11-05T16:09:30.935Z,27.83
2022-11-05T16:12:36.604Z,31.67
2022-11-05T16:15:09.152Z,30.63
2022-11-05T16:17:53.798Z,28.77
2022-11-05T16:20:30.315Z,30.52
2022-11-05T16:22:59.701Z,33.72
2022-11-05T16:25:29.970Z,35.65
2022-11-05T16:27:58.105Z,36.70
2022-11-05T16:30:25.553Z,33.35
2022-11-05T16:32:52.403Z,34.40
2022-11-05T16:35:26.264Z,35.55
2022-11-05T16:37:52.891Z,28.00
2022-11-05T16:40:24.378Z,36.53
2022-11-05T16:42:52.483Z,33.72
2022-11-05T16:45:22.064Z,34.67
2022-11-05T16:47:49.113Z,41.45
2022-11-05T16:50:17.840Z,37.80
2022-11-05T16:52:45.977Z,40.88
2022-11-05T16:55:13.911Z,33.25
2022-11-05T16:57:42.729Z,40.90
2022-11-05T17:00:13.444Z,42.95
2022-11-05T17:02:40.282Z,48.35
2022-11-05T17:05:13.058Z,41.28
2022-11-05T17:07:41.517Z,35.38
2022-11-05T17:10:08.335Z,40.22
2022-11-05T17:12:35.882Z,43.45
2022-11-05T17:15:02.508Z,31.00
2022-11-05T17:17:29.263Z,38.85
2022-11-05T17:19:55.876Z,45.00
2022-11-05T17:22:22.501Z,44.55
2022-11-05T17:24:49.113Z,44.78
2022-11-05T17:27:15.757Z,42.05
2022-11-05T17:29:42.345Z,35.75
2022-11-05T17:32:08.950Z,44.40
2022-11-05T17:34:35.629Z,39.55
2022-11-05T17:37:02.237Z,32.15
2022-11-05T17:39:31.898Z,41.60
2022-11-05T17:41:58.766Z,36.33
2022-11-05T17:44:25.762Z,27.48
2022-11-05T17:46:52.429Z,36.15
2022-11-05T17:49:19.048Z,36.90
2022-11-05T17:51:45.712Z,36.08
2022-11-05T17:54:12.365Z,32.92
2022-11-05T17:56:44.593Z,29.40
2022-11-05T17:59:11.361Z,31.73
2022-11-05T18:01:43.373Z,34.53
2022-11-05T18:04:10.437Z,29.23
2022-11-05T18:06:38.274Z,32.33
2022-11-05T18:09:06.357Z,34.88
2022-11-05T18:11:33.982Z,33.45
2022-11-05T18:14:00.657Z,34.92
2022-11-05T18:16:27.325Z,33.75
2022-11-05T18:18:53.906Z,32.63
2022-11-05T18:21:20.496Z,34.22
2022-11-05T18:23:47.114Z,34.67
2022-11-05T18:26:15.972Z,34.28
2022-11-05T18:28:43.575Z,26.25
2022-11-05T18:31:20.583Z,30.05
2022-11-05T18:33:50.781Z,32.70
2022-11-05T18:36:28.298Z,33.33
2022-11-05T18:38:57.153Z,30.83
2022-11-05T18:41:24.105Z,30.85
2022-11-05T18:43:51.418Z,30.02
2022-11-05T18:46:43.101Z,31.70
2022-11-05T18:49:05.721Z,33.22
2022-11-05T18:51:32.783Z,28.98
2022-11-05T18:54:00.649Z,31.33
2022-11-05T18:56:27.303Z,34.50
2022-11-05T18:59:14.553Z,32.47
2022-11-05T19:01:41.220Z,35.15
2022-11-05T19:04:07.979Z,34.42
2022-11-05T19:06:35.458Z,33.90
2022-11-05T19:09:02.450Z,31.92
2022-11-05T21:55:09.115Z,40.13
2022-11-05T21:57:54.258Z,36.15
2022-11-05T22:00:20.943Z,37.38
2022-11-05T22:02:47.672Z,38.40
2022-11-05T22:05:14.730Z,35.10
2022-11-05T22:07:41.442Z,38.10
2022-11-05T22:10:15.783Z,37.90
2022-11-05T22:12:43.737Z,37.25
2022-11-05T22:15:10.781Z,38.10
2022-11-05T22:17:38.359Z,35.13
2022-11-05T22:20:08.444Z,34.05
2022-11-05T22:22:35.147Z,38.20
2022-11-05T22:25:01.751Z,39.50
2022-11-05T22:27:28.346Z,38.25
2022-11-05T22:29:55.007Z,39.05
2022-11-05T22:32:21.594Z,37.85
2022-11-05T22:34:48.897Z,38.03
2022-11-05T22:37:15.511Z,37.10
2022-11-05T22:39:42.143Z,36.70
2022-11-05T22:42:09.092Z,34.38
2022-11-05T22:44:36.561Z,41.97
2022-11-05T22:47:03.212Z,33.97
2022-11-05T22:49:29.878Z,34.85
2022-11-05T22:51:56.504Z,37.80
2022-11-05T22:54:23.162Z,35.20
2022-11-05T22:56:50.399Z,36.00
2022-11-05T22:59:17.031Z,34.33
2022-11-05T23:01:45.151Z,37.75
2022-11-05T23:04:13.276Z,36.28
2022-11-05T23:06:58.694Z,35.95
2022-11-05T23:09:47.050Z,35.33
2022-11-05T23:12:29.881Z,28.10
2022-11-05T23:14:58.248Z,30.52
2022-11-05T23:17:43.640Z,32.22
2022-11-05T23:20:38.517Z,33.70
2022-11-05T23:23:28.144Z,34.08
2022-11-05T23:25:58.805Z,34.50
2022-11-05T23:28:25.912Z,35.15
2022-11-05T23:31:11.114Z,35.70
2022-11-05T23:33:37.751Z,40.10
2022-11-05T23:36:22.762Z,36.13
2022-11-05T23:38:49.412Z,40.95
2022-11-05T23:41:34.623Z,32.75
2022-11-05T23:44:19.746Z,30.52
2022-11-05T23:47:04.949Z,33.63
2022-11-05T23:49:31.660Z,31.90
2022-11-05T23:51:58.272Z,34.28
2022-11-05T23:54:24.925Z,38.05
2022-11-05T23:56:51.516Z,35.83
2022-11-05T23:59:18.108Z,32.97
